Time;durP1;ratioP1;P1;durP2;ratioP2;P2;SDS_P1;SDS_P2;PMS_P1;PMS_P2;Temp;Humidity;BMP_temperature;BMP_pressure;BME280_temperature;BME280_humidity;BME280_pressure;Samples;Min_cycle;Max_cycle;Signal;HPM_P1;HPM_P2
2022/02/09 00:02:18;;;;;;;6.68;5.97;;;;;;;8.92;100.00;100763.31;5114076;28;20211;-77
2022/02/09 00:04:58;;;;;;;7.05;5.50;;;;;;;8.73;100.00;100777.34;5113913;28;20204;-77
2022/02/09 00:07:32;;;;;;;7.25;6.40;;;;;;;8.57;100.00;100776.09;5113098;28;20534;-78
2022/02/09 00:09:59;;;;;;;8.60;6.25;;;;;;;8.43;100.00;100765.75;5113532;28;20192;-78
2022/02/09 00:12:31;;;;;;;10.43;5.82;;;;;;;8.55;100.00;100770.75;5113944;28;20189;-78
2022/02/09 00:15:11;;;;;;;7.35;6.63;;;;;;;8.76;100.00;100766.50;5114018;28;20179;-78
2022/02/09 00:17:45;;;;;;;6.97;6.18;;;;;;;8.84;100.00;100765.38;5113606;28;20300;-78
2022/02/09 00:20:42;;;;;;;22.50;15.50;;;;;;;8.88;100.00;100757.16;5113826;28;20189;-78
2022/02/09 00:34:27;;;;;;;8.70;5.63;;;;;;;8.63;100.00;100742.78;5113757;28;20186;-77
2022/02/09 00:40:17;;;;;;;6.80;5.25;;;;;;;8.73;100.00;100752.31;5113351;28;20187;-78
2022/02/09 01:00:04;;;;;;;6.20;5.43;;;;;;;8.31;100.00;100745.50;5093319;28;20193;-78
2022/02/09 01:37:54;;;;;;;6.18;5.57;;;;;;;8.54;100.00;100730.53;5116387;28;20188;-78
2022/02/09 01:38:50;;;;;;;8.80;5.60;;;;;;;8.57;100.00;100738.50;5116285;28;20268;-77
2022/02/09 01:55:30;;;;;;;6.50;5.00;;;;;;;8.76;100.00;100711.91;5053335;28;20702;-78
2022/02/09 01:57:57;;;;;;;7.78;6.30;;;;;;;8.75;100.00;100707.47;5103003;28;20225;-78
2022/02/09 02:00:26;;;;;;;6.35;5.47;;;;;;;8.81;100.00;100712.63;5116121;28;20210;-78
2022/02/09 02:02:53;;;;;;;5.30;4.60;;;;;;;8.89;100.00;100713.28;5116157;28;20226;-78
2022/02/09 02:05:19;;;;;;;7.47;5.20;;;;;;;8.98;100.00;100712.97;5115212;28;20208;-78
2022/02/09 02:07:50;;;;;;;7.22;4.60;;;;;;;9.05;100.00;100713.63;5115083;28;20281;-78
2022/02/09 02:10:22;;;;;;;6.78;4.47;;;;;;;9.05;100.00;100707.38;5115892;28;20182;-78
2022/02/09 02:13:04;;;;;;;7.28;4.43;;;;;;;9.17;100.00;100705.13;5115943;28;20182;-78
2022/02/09 02:18:16;;;;;;;7.00;4.65;;;;;;;9.12;100.00;100696.38;5114072;28;20218;-78
2022/02/09 02:20:53;;;;;;;5.30;4.65;;;;;;;9.35;100.00;100694.69;5115381;28;20709;-78
2022/02/09 02:23:36;;;;;;;6.15;5.13;;;;;;;9.20;100.00;100688.03;5115194;28;20199;-78
2022/02/09 02:26:15;;;;;;;5.22;4.72;;;;;;;9.18;100.00;100687.22;5115101;28;20556;-78
2022/02/09 02:28:56;;;;;;;7.25;4.50;;;;;;;9.12;100.00;100682.06;5115373;28;20632;-78
2022/02/09 02:31:50;;;;;;;4.90;4.22;;;;;;;9.19;100.00;100683.59;5115412;28;20202;-78
2022/02/09 02:37:51;;;;;;;7.38;5.15;;;;;;;9.23;100.00;100676.31;5078525;28;20313;-78
2022/02/09 02:40:41;;;;;;;7.63;5.07;;;;;;;9.21;100.00;100662.91;5114425;28;20659;-78
2022/02/09 02:46:33;;;;;;;5.65;4.50;;;;;;;9.27;100.00;100670.78;5081244;28;20199;-78
2022/02/09 02:57:26;;;;;;;6.40;4.50;;;;;;;9.25;100.00;100656.50;5114610;28;20205;-78
2022/02/09 03:08:40;;;;;;;5.90;4.40;;;;;;;9.14;100.00;100654.19;5056926;28;20741;-78
2022/02/09 03:11:34;;;;;;;7.70;5.15;;;;;;;9.13;100.00;100662.31;5114652;28;20630;-78
2022/02/09 03:14:07;;;;;;;5.03;4.38;;;;;;;9.10;100.00;100671.34;5113927;28;20198;-78
2022/02/09 03:16:37;;;;;;;5.95;4.85;;;;;;;9.19;100.00;100665.66;5114522;28;20193;-78
2022/02/09 03:21:50;;;;;;;7.13;4.88;;;;;;;9.11;100.00;100665.06;5100873;28;20270;-78
2022/02/09 03:24:29;;;;;;;7.47;4.85;;;;;;;9.14;100.00;100658.69;5114174;28;20236;-78
2022/02/09 03:27:22;;;;;;;8.30;4.97;;;;;;;9.10;100.00;100660.59;5114890;28;20182;-78
2022/02/09 03:44:02;;;;;;;5.95;5.10;;;;;;;9.02;100.00;100659.97;5113780;28;20230;-78
2022/02/09 03:49:29;;;;;;;8.00;5.47;;;;;;;9.11;100.00;100651.63;5111935;28;20995;-78
2022/02/09 03:52:04;;;;;;;6.47;5.60;;;;;;;9.22;100.00;100645.84;5113810;28;20194;-78
2022/02/09 03:54:36;;;;;;;7.40;4.97;;;;;;;9.14;100.00;100653.31;5102342;28;20234;-78
2022/02/09 03:57:10;;;;;;;8.50;5.88;;;;;;;9.19;100.00;100641.47;5093694;28;20206;-78
2022/02/09 03:59:36;;;;;;;9.10;6.13;;;;;;;9.26;100.00;100638.56;5093133;28;20652;-78
2022/02/09 04:02:05;;;;;;;6.95;4.80;;;;;;;9.22;100.00;100640.47;5093537;28;20199;-78
2022/02/09 04:04:32;;;;;;;6.72;6.03;;;;;;;9.17;100.00;100639.78;5092984;28;20551;-78
2022/02/09 04:07:00;;;;;;;8.82;5.82;;;;;;;9.32;100.00;100641.03;5093678;28;20265;-78
2022/02/09 04:09:30;;;;;;;8.57;5.70;;;;;;;9.23;100.00;100644.06;5093506;28;20199;-78
2022/02/09 04:12:04;;;;;;;12.60;6.07;;;;;;;9.16;100.00;100638.91;5093678;28;20184;-78
2022/02/09 04:14:40;;;;;;;7.28;5.65;;;;;;;9.18;100.00;100641.53;5093552;28;20214;-77
2022/02/09 04:17:21;;;;;;;8.05;6.18;;;;;;;9.24;100.00;100644.00;5093563;28;20210;-77
2022/02/09 04:20:07;;;;;;;7.70;6.90;;;;;;;9.32;100.00;100639.22;5092974;28;20198;-78
2022/02/09 04:36:32;;;;;;;11.10;6.80;;;;;;;9.19;100.00;100624.47;5093582;28;20197;-77
2022/02/09 04:39:05;;;;;;;13.48;7.10;;;;;;;9.28;100.00;100624.13;5097085;28;20193;-77
2022/02/09 04:44:34;;;;;;;11.55;7.15;;;;;;;9.28;100.00;100623.28;5080950;28;20198;-77
2022/02/09 04:47:19;;;;;;;9.73;7.10;;;;;;;9.17;100.00;100619.16;5096051;28;20182;-78
2022/02/09 04:50:04;;;;;;;9.65;7.45;;;;;;;9.11;100.00;100622.06;5096807;28;20664;-77
2022/02/09 04:52:53;;;;;;;15.32;7.32;;;;;;;9.18;100.00;100623.59;5096760;28;20210;-77
2022/02/09 04:55:39;;;;;;;15.02;8.27;;;;;;;9.24;100.00;100625.19;5096395;28;20231;-77
2022/02/09 04:58:12;;;;;;;10.25;7.10;;;;;;;9.19;100.00;100630.72;5096717;28;20241;-77
2022/02/09 05:00:47;;;;;;;9.27;7.22;;;;;;;9.17;100.00;100631.72;5096512;28;20191;-77
2022/02/09 05:25:39;;;;;;;12.30;6.93;;;;;;;8.99;100.00;100630.56;5096213;28;20655;-78
2022/02/09 05:28:08;;;;;;;10.05;6.25;;;;;;;9.03;100.00;100636.72;5096057;28;20181;-78
2022/02/09 05:30:35;;;;;;;11.38;7.47;;;;;;;9.10;100.00;100627.50;5095706;28;20202;-78
2022/02/09 05:33:02;;;;;;;10.90;7.10;;;;;;;9.12;100.00;100625.63;5096025;28;20205;-77
2022/02/09 05:35:29;;;;;;;9.85;6.47;;;;;;;9.11;100.00;100630.13;5095247;28;20720;-77
2022/02/09 05:37:58;;;;;;;10.90;7.97;;;;;;;9.08;100.00;100621.28;5095539;28;20216;-77
2022/02/09 05:40:25;;;;;;;13.98;7.05;;;;;;;9.06;100.00;100625.84;5095417;28;20274;-77
2022/02/09 05:42:52;;;;;;;14.20;7.68;;;;;;;9.03;100.00;100631.34;5095742;28;20216;-77
2022/02/09 05:45:22;;;;;;;12.05;7.85;;;;;;;9.11;100.00;100629.25;5095849;28;20216;-78
2022/02/09 05:50:33;;;;;;;11.15;7.75;;;;;;;9.16;100.00;100638.91;5094901;28;20194;-77
2022/02/09 05:53:11;;;;;;;11.35;7.93;;;;;;;9.08;100.00;100645.47;5095519;28;20191;-77
2022/02/09 05:55:46;;;;;;;17.88;7.85;;;;;;;9.04;100.00;100644.69;5116743;27;20239;-77
2022/02/09 05:58:21;;;;;;;13.65;8.70;;;;;;;9.21;100.00;100641.44;5115683;28;20228;-78
2022/02/09 06:00:48;;;;;;;16.65;9.68;;;;;;;8.97;100.00;100644.03;5115570;28;20270;-78
2022/02/09 06:03:15;;;;;;;18.45;7.85;;;;;;;9.20;100.00;100647.72;5115847;28;20202;-78
2022/02/09 06:05:42;;;;;;;13.85;7.05;;;;;;;9.12;100.00;100649.81;5115841;28;20590;-78
2022/02/09 06:08:10;;;;;;;16.42;8.43;;;;;;;9.16;100.00;100646.97;5115447;28;20209;-78
2022/02/09 06:10:37;;;;;;;13.05;7.95;;;;;;;9.06;100.00;100641.97;5115536;28;20283;-78
2022/02/09 06:13:20;;;;;;;13.20;7.88;;;;;;;9.10;100.00;100646.31;5114726;28;20201;-78
2022/02/09 06:16:08;;;;;;;14.20;7.63;;;;;;;9.17;100.00;100645.16;5115314;28;20203;-77
2022/02/09 06:21:21;;;;;;;16.33;8.75;;;;;;;9.21;100.00;100644.13;5114182;28;20721;-78
2022/02/09 06:23:49;;;;;;;13.75;8.60;;;;;;;9.11;100.00;100632.81;5114687;28;20202;-78
2022/02/09 06:26:16;;;;;;;16.25;8.65;;;;;;;9.22;100.00;100635.09;5114665;28;20224;-78
2022/02/09 06:28:44;;;;;;;18.15;9.88;;;;;;;9.22;100.00;100628.84;5114736;28;20248;-78
2022/02/09 06:31:10;;;;;;;15.10;8.85;;;;;;;9.11;100.00;100631.91;5115112;28;20189;-78
2022/02/09 06:33:37;;;;;;;17.20;9.48;;;;;;;9.24;100.00;100630.56;5113788;28;20313;-77
2022/02/09 06:36:07;;;;;;;12.73;8.15;;;;;;;9.23;100.00;100625.25;5114492;28;20201;-78
2022/02/09 06:38:39;;;;;;;15.35;9.15;;;;;;;9.19;100.00;100629.84;5114248;28;20248;-78
2022/02/09 06:41:08;;;;;;;18.63;9.80;;;;;;;9.19;100.00;100624.47;5114712;28;20270;-78
2022/02/09 06:43:35;;;;;;;15.35;9.20;;;;;;;9.15;100.00;100626.38;5114532;28;20285;-77
2022/02/09 06:46:02;;;;;;;14.40;9.35;;;;;;;9.15;100.00;100620.13;5114979;28;20625;-78
2022/02/09 06:48:30;;;;;;;18.58;10.48;;;;;;;9.18;100.00;100617.34;5114683;28;20584;-77
2022/02/09 06:51:04;;;;;;;16.15;10.10;;;;;;;9.13;100.00;100619.31;5114758;28;20558;-79
2022/02/09 06:53:35;;;;;;;15.68;9.75;;;;;;;9.10;100.00;100622.13;5111767;28;20262;-79
2022/02/09 06:56:03;;;;;;;15.77;9.25;;;;;;;8.98;100.00;100623.44;5091142;28;20202;-80
2022/02/09 06:58:45;;;;;;;12.93;8.50;;;;;;;9.13;100.00;100625.56;5092222;28;20269;-80
2022/02/09 07:01:12;;;;;;;16.80;9.93;;;;;;;9.17;100.00;100627.22;5092351;28;20229;-82
2022/02/09 07:03:39;;;;;;;17.65;9.27;;;;;;;9.14;100.00;100618.41;5093954;28;20585;-79
2022/02/09 07:06:06;;;;;;;11.20;7.78;;;;;;;9.28;100.00;100624.13;5091640;28;20590;-78
2022/02/09 07:08:33;;;;;;;12.52;8.70;;;;;;;9.23;100.00;100619.88;5091758;28;20245;-77
2022/02/09 07:11:00;;;;;;;16.30;9.43;;;;;;;9.14;100.00;100616.59;5092264;28;20286;-78
2022/02/09 07:13:26;;;;;;;17.20;9.50;;;;;;;9.28;100.00;100626.81;5092189;28;20202;-78
2022/02/09 07:15:56;;;;;;;13.02;8.18;;;;;;;9.10;100.00;100624.81;5096831;28;20291;-78
2022/02/09 07:18:24;;;;;;;12.90;7.88;;;;;;;9.04;100.00;100631.25;5091707;28;20211;-78
2022/02/09 07:20:58;;;;;;;12.70;8.25;;;;;;;9.00;100.00;100628.75;5091476;28;20201;-78
2022/02/09 07:23:30;;;;;;;12.68;6.88;;;;;;;9.01;100.00;100630.50;5091750;28;20199;-77
2022/02/09 07:26:07;;;;;;;12.75;8.05;;;;;;;9.02;100.00;100627.75;5071630;28;20285;-78
2022/02/09 07:28:34;;;;;;;14.45;7.93;;;;;;;8.96;100.00;100623.47;5077757;28;20185;-78
2022/02/09 07:31:04;;;;;;;13.15;8.57;;;;;;;8.82;100.00;100624.88;5094077;28;20191;-77
2022/02/09 07:33:30;;;;;;;15.95;9.90;;;;;;;8.80;100.00;100616.03;5092255;28;20216;-77
2022/02/09 07:35:57;;;;;;;16.73;9.40;;;;;;;8.60;100.00;100616.72;5091516;28;20181;-79
2022/02/09 07:38:24;;;;;;;14.25;8.55;;;;;;;8.50;100.00;100622.38;5091590;28;20218;-78
2022/02/09 07:40:56;;;;;;;13.70;8.75;;;;;;;8.58;100.00;100621.25;5092002;28;20670;-77
2022/02/09 07:43:26;;;;;;;15.20;8.95;;;;;;;8.44;100.00;100616.34;5090827;28;20278;-77
2022/02/09 07:46:17;;;;;;;11.75;8.15;;;;;;;8.30;100.00;100620.31;5091377;28;20193;-77
2022/02/09 07:48:56;;;;;;;13.32;8.60;;;;;;;8.31;100.00;100623.88;5091933;28;20193;-79
2022/02/09 07:51:52;;;;;;;17.13;8.70;;;;;;;8.27;100.00;100623.09;5091165;28;20216;-79
2022/02/09 07:54:20;;;;;;;9.73;6.40;;;;;;;8.58;100.00;100615.88;5090509;28;20681;-79
2022/02/09 07:56:47;;;;;;;12.32;7.55;;;;;;;8.49;100.00;100623.28;5085729;28;20201;-79
2022/02/09 07:59:16;;;;;;;9.15;6.93;;;;;;;8.53;100.00;100624.97;5090452;28;20591;-79
2022/02/09 08:01:44;;;;;;;8.90;6.47;;;;;;;8.55;100.00;100620.41;5090042;28;20238;-78
2022/02/09 08:04:12;;;;;;;12.20;6.82;;;;;;;8.56;100.00;100619.47;5091807;28;20201;-78
2022/02/09 08:06:40;;;;;;;17.02;7.03;;;;;;;8.56;100.00;100616.78;5089991;28;20186;-79
2022/02/09 08:09:13;;;;;;;11.93;7.35;;;;;;;8.45;100.00;100608.22;5090665;28;20592;-80
2022/02/09 08:11:46;;;;;;;12.00;6.85;;;;;;;8.52;100.00;100607.09;5094518;28;20191;-79
2022/02/09 08:28:45;;;;;;;13.07;7.18;;;;;;;8.45;100.00;100594.78;5095332;28;20180;-81
2022/02/09 08:31:45;;;;;;;10.65;6.95;;;;;;;8.25;100.00;100599.91;5094900;28;20190;-79
2022/02/09 08:34:11;;;;;;;16.40;8.70;;;;;;;8.23;100.00;100593.72;5095265;28;20208;-80
2022/02/09 08:36:40;;;;;;;16.38;11.25;;;;;;;8.32;100.00;100594.31;5095586;28;20204;-80
2022/02/09 08:39:07;;;;;;;12.77;7.68;;;;;;;8.34;100.00;100594.25;5094427;28;20244;-81
2022/02/09 08:41:34;;;;;;;16.02;8.10;;;;;;;8.64;100.00;100589.69;5095043;28;20285;-81
2022/02/09 08:44:01;;;;;;;12.07;8.10;;;;;;;8.63;100.00;100587.06;5098866;28;20197;-80
2022/02/09 08:46:28;;;;;;;10.43;7.55;;;;;;;8.56;100.00;100592.63;5096115;28;20298;-80
2022/02/09 08:48:54;;;;;;;12.38;7.30;;;;;;;8.70;100.00;100589.47;5095245;28;20207;-80
2022/02/09 08:51:22;;;;;;;10.80;7.50;;;;;;;8.71;100.00;100601.09;5094672;28;20286;-80
2022/02/09 08:53:50;;;;;;;10.05;7.75;;;;;;;8.70;100.00;100599.34;5094313;28;20222;-79
2022/02/09 08:56:17;;;;;;;13.85;7.28;;;;;;;8.62;100.00;100593.38;5100199;28;20194;-80
2022/02/09 08:58:44;;;;;;;12.48;7.50;;;;;;;8.76;100.00;100604.50;5095281;28;20245;-80
2022/02/09 09:01:23;;;;;;;12.05;6.80;;;;;;;8.76;100.00;100601.81;5097652;28;20254;-78
2022/02/09 09:03:53;;;;;;;15.57;6.10;;;;;;;8.84;100.00;100598.84;5096300;28;20252;-80
2022/02/09 09:06:23;;;;;;;11.55;7.72;;;;;;;8.86;100.00;100605.91;5095949;28;20522;-81
2022/02/09 09:09:05;;;;;;;9.63;7.15;;;;;;;8.85;100.00;100598.81;5095778;28;20277;-81
2022/02/09 09:31:34;;;;;;;10.80;6.10;;;;;;;9.42;100.00;100572.56;5058797;28;20194;-82
2022/02/09 09:59:18;;;;;;;8.73;5.15;;;;;;;10.12;94.80;100552.75;5113575;28;20278;-83
2022/02/09 10:04:57;;;;;;;10.30;5.38;;;;;;;10.34;92.76;100557.28;5096665;28;20275;-84
2022/02/09 10:35:16;;;;;;;9.35;4.70;;;;;;;11.08;79.54;100533.41;5111739;28;20624;-82
2022/02/09 10:37:43;;;;;;;6.03;4.45;;;;;;;11.10;79.99;100530.63;5112258;28;20187;-81
2022/02/09 10:40:26;;;;;;;9.23;5.72;;;;;;;11.20;79.55;100532.84;5115979;28;20253;-82
2022/02/09 10:42:59;;;;;;;13.90;8.00;;;;;;;11.37;78.59;100529.34;5114854;28;20515;-80
2022/02/09 10:45:32;;;;;;;10.15;6.22;;;;;;;11.54;77.59;100525.88;5118923;28;20180;-80
2022/02/09 10:48:00;;;;;;;10.43;4.55;;;;;;;11.57;77.20;100525.72;5113474;28;20633;-82
2022/02/09 10:50:29;;;;;;;11.23;5.07;;;;;;;11.66;76.32;100524.41;5099800;28;20237;-83
2022/02/09 10:52:59;;;;;;;8.60;4.57;;;;;;;11.59;76.85;100517.56;5113135;28;20801;-81
2022/02/09 10:55:35;;;;;;;9.25;4.95;;;;;;;11.65;76.65;100518.16;5111675;28;20307;-81
2022/02/09 10:58:03;;;;;;;8.85;5.30;;;;;;;11.66;77.09;100521.72;5114138;28;20205;-81
2022/02/09 11:00:31;;;;;;;13.63;6.13;;;;;;;11.71;77.29;100516.09;5125041;27;20263;-83
2022/02/09 11:02:57;;;;;;;12.55;5.90;;;;;;;11.93;76.21;100508.75;5134150;27;20632;-78
2022/02/09 11:05:27;;;;;;;6.05;4.82;;;;;;;12.08;75.08;100502.59;5126680;27;20274;-81
2022/02/09 11:07:55;;;;;;;8.35;4.63;;;;;;;12.10;74.97;100508.78;5112340;28;20241;-82
2022/02/09 11:10:23;;;;;;;8.40;4.53;;;;;;;12.24;73.53;100499.97;5111674;28;20191;-81
2022/02/09 11:12:52;;;;;;;8.80;5.65;;;;;;;12.44;72.65;100490.00;5116056;28;20595;-81
2022/02/09 11:15:20;;;;;;;11.38;5.45;;;;;;;12.48;71.95;100495.16;5120679;28;20199;-80
2022/02/09 11:17:48;;;;;;;8.10;4.50;;;;;;;12.47;72.64;100492.53;5114239;28;20276;-81
2022/02/09 11:20:17;;;;;;;13.10;4.97;;;;;;;12.49;72.28;100487.94;5115439;28;20311;-81
2022/02/09 11:22:46;;;;;;;9.05;4.95;;;;;;;12.45;71.83;100483.63;5113157;28;20541;-82
2022/02/09 11:25:19;;;;;;;9.50;4.70;;;;;;;12.62;70.79;100489.03;5112925;28;20205;-81
2022/02/09 11:27:52;;;;;;;6.90;4.07;;;;;;;12.03;72.58;100485.75;5114184;28;20342;-82
2022/02/09 11:30:28;;;;;;;10.02;4.07;;;;;;;12.34;72.00;100477.91;5114127;28;20264;-82
2022/02/09 11:33:13;;;;;;;8.45;4.35;;;;;;;12.50;71.93;100477.06;5112944;28;20195;-83
2022/02/09 11:36:05;;;;;;;8.82;4.35;;;;;;;12.59;70.02;100472.97;5111825;28;20187;-85
2022/02/09 11:38:44;;;;;;;8.90;4.60;;;;;;;12.76;69.64;100473.94;5110877;28;20221;-82
2022/02/09 11:41:18;;;;;;;5.75;3.90;;;;;;;12.73;70.30;100466.88;5108590;28;20191;-83
2022/02/09 11:44:04;;;;;;;7.70;3.80;;;;;;;12.59;70.77;100464.88;5110541;28;20591;-80
2022/02/09 11:47:15;;;;;;;5.55;3.63;;;;;;;12.64;70.93;100452.00;5103771;28;20187;-79
2022/02/09 12:01:12;;;;;;;5.90;4.10;;;;;;;12.90;70.49;100428.97;5084407;28;20197;-83
2022/02/09 12:10:14;;;;;;;6.70;3.90;;;;;;;12.94;68.88;100426.97;5092568;28;20680;-81
2022/02/09 12:12:45;;;;;;;8.38;4.13;;;;;;;12.91;68.08;100416.31;5059733;28;20238;-81
2022/02/09 12:15:28;;;;;;;10.02;4.53;;;;;;;12.77;67.96;100414.38;5091014;28;20280;-82
2022/02/09 12:18:13;;;;;;;6.05;4.00;;;;;;;12.77;68.27;100408.09;5090554;28;20216;-82
2022/02/09 12:20:47;;;;;;;6.45;3.70;;;;;;;12.44;69.35;100406.28;5090661;28;20215;-81
2022/02/09 12:23:28;;;;;;;6.82;4.20;;;;;;;12.51;67.66;100408.56;5091919;28;20645;-81
2022/02/09 12:25:54;;;;;;;5.38;3.70;;;;;;;12.29;67.15;100407.94;5093397;28;21008;-81
2022/02/09 12:28:25;;;;;;;6.82;3.90;;;;;;;12.44;66.32;100393.63;5098928;28;20248;-81
2022/02/09 12:31:04;;;;;;;6.85;3.15;;;;;;;12.43;65.12;100396.41;5111714;28;20288;-84
2022/02/09 12:33:32;;;;;;;6.68;3.60;;;;;;;12.27;66.51;100394.50;5110638;28;20927;-82
2022/02/09 12:36:10;;;;;;;6.70;3.63;;;;;;;12.42;67.49;100383.88;5096976;28;20197;-81
2022/02/09 12:38:37;;;;;;;4.65;3.58;;;;;;;12.53;67.29;100389.56;5101754;28;20244;-80
2022/02/09 12:41:16;;;;;;;9.48;4.88;;;;;;;12.62;67.41;100388.22;5110811;28;20284;-82
2022/02/09 12:43:51;;;;;;;6.68;3.95;;;;;;;12.69;66.77;100382.38;5103270;28;20271;-81
2022/02/09 12:46:21;;;;;;;7.82;4.72;;;;;;;12.73;65.27;100378.56;5098717;28;20235;-80
2022/02/09 12:48:49;;;;;;;9.93;3.30;;;;;;;12.50;65.25;100373.50;5092848;28;20197;-81
2022/02/09 12:51:28;;;;;;;7.78;4.00;;;;;;;12.50;64.94;100376.22;5086314;28;20641;-80
2022/02/09 12:53:55;;;;;;;7.60;3.75;;;;;;;12.47;64.89;100376.38;5098658;28;20258;-80
2022/02/09 12:56:24;;;;;;;8.10;3.95;;;;;;;12.47;65.48;100371.84;5111622;28;20278;-81
2022/02/09 12:59:01;;;;;;;4.95;3.55;;;;;;;12.42;65.28;100367.66;5105914;28;20196;-82
2022/02/09 13:01:38;;;;;;;5.25;3.17;;;;;;;12.50;63.59;100370.81;5116108;28;20507;-81
2022/02/09 13:04:05;;;;;;;6.60;3.65;;;;;;;12.17;65.12;100363.56;5112063;28;20565;-81
2022/02/09 13:06:32;;;;;;;5.60;3.78;;;;;;;12.10;66.01;100367.53;5114202;28;20341;-82
2022/02/09 13:08:58;;;;;;;5.90;3.17;;;;;;;12.05;66.51;100361.47;5114986;28;20291;-82
2022/02/09 13:11:28;;;;;;;6.45;4.10;;;;;;;12.28;65.70;100366.56;5115252;28;20215;-82
2022/02/09 13:14:03;;;;;;;6.82;3.38;;;;;;;12.46;63.94;100358.44;5094693;28;20603;-81
2022/02/09 13:16:43;;;;;;;8.60;3.90;;;;;;;12.45;64.05;100353.97;5104372;28;20207;-82
2022/02/09 13:19:26;;;;;;;4.88;3.60;;;;;;;12.42;64.23;100355.03;5094503;28;20223;-82
2022/02/09 14:13:44;;;;;;;9.32;4.50;;;;;;;15.54;48.13;100311.84;5108912;27;20691;-81
2022/02/09 14:54:57;;;;;;;7.07;5.00;;;;;;;13.85;54.22;100275.69;5093107;28;20299;-82
2022/02/09 14:57:29;;;;;;;6.57;4.85;;;;;;;13.67;54.03;100269.56;5115347;28;20191;-82
2022/02/09 15:00:08;;;;;;;9.50;6.60;;;;;;;13.59;54.82;100269.16;5113084;28;20237;-80
2022/02/09 15:02:53;;;;;;;11.65;6.47;;;;;;;13.48;55.20;100261.69;5106005;28;20197;-83
2022/02/09 15:05:54;;;;;;;11.35;5.85;;;;;;;13.31;55.17;100262.69;5114233;27;20208;-79
2022/02/09 15:08:28;;;;;;;11.10;6.43;;;;;;;13.35;56.31;100264.25;5122663;27;20186;-81
2022/02/09 15:11:06;;;;;;;8.77;4.70;;;;;;;13.19;54.87;100264.25;5112345;28;20609;-80
2022/02/09 15:13:43;;;;;;;7.03;3.65;;;;;;;13.01;55.17;100258.06;5111931;28;20210;-80
2022/02/09 15:16:18;;;;;;;6.90;3.97;;;;;;;12.75;56.42;100258.69;5092123;28;20205;-82
2022/02/09 15:21:59;;;;;;;8.57;4.40;;;;;;;12.64;57.11;100256.56;5111571;28;20554;-81
2022/02/09 15:24:29;;;;;;;7.43;4.63;;;;;;;12.87;56.71;100260.72;5111362;28;20207;-80
2022/02/09 15:26:58;;;;;;;9.98;4.00;;;;;;;12.82;56.99;100251.97;5112925;27;20292;-81
2022/02/09 15:29:26;;;;;;;10.65;4.70;;;;;;;12.81;58.13;100252.94;5130797;27;20638;-82
2022/02/09 15:31:57;;;;;;;9.77;6.10;;;;;;;12.86;57.00;100242.72;5124848;27;20279;-82
2022/02/09 15:34:28;;;;;;;7.88;5.75;;;;;;;12.88;56.86;100254.31;5108204;28;20192;-82
2022/02/09 15:37:07;;;;;;;7.68;5.22;;;;;;;12.82;57.13;100246.56;5112497;28;20180;-82
2022/02/09 15:39:39;;;;;;;6.72;4.50;;;;;;;12.76;57.69;100241.53;5107662;28;20299;-81
2022/02/09 15:42:22;;;;;;;5.63;3.70;;;;;;;12.68;56.92;100239.25;5109536;28;20184;-81
2022/02/09 16:10:59;;;;;;;8.40;4.30;;;;;;;12.39;59.75;100248.97;5115526;28;20627;-81
2022/02/09 16:16:50;;;;;;;8.65;4.22;;;;;;;12.25;60.52;100238.94;5112264;28;20267;-83
2022/02/09 16:22:10;;;;;;;8.73;5.03;;;;;;;12.10;61.10;100237.97;5112104;28;20325;-83
2022/02/09 16:25:08;;;;;;;9.10;3.55;;;;;;;12.13;60.20;100245.88;5111699;28;20500;-83
2022/02/09 16:34:10;;;;;;;9.35;4.72;;;;;;;11.99;60.00;100245.78;5115241;28;20206;-76
2022/02/09 16:45:08;;;;;;;9.05;4.57;;;;;;;11.57;63.73;100234.41;5116978;28;20669;-76
2022/02/09 16:50:35;;;;;;;10.05;6.47;;;;;;;11.58;63.95;100227.22;5079378;28;20195;-76
2022/02/09 16:53:11;;;;;;;8.80;5.55;;;;;;;11.41;64.47;100223.56;5115709;28;20183;-76
2022/02/09 16:56:08;;;;;;;9.75;5.40;;;;;;;11.30;64.64;100222.38;5115386;28;20256;-82
2022/02/09 17:20:29;;;;;;;12.50;8.00;;;;;;;10.95;68.71;100222.34;5119592;28;20534;-80
2022/02/09 17:22:55;;;;;;;8.50;6.95;;;;;;;10.86;69.09;100226.34;5117556;28;20659;-81
2022/02/09 17:25:23;;;;;;;19.13;12.80;;;;;;;10.77;70.79;100224.97;5126111;27;20628;-82
2022/02/09 17:27:50;;;;;;;18.67;12.45;;;;;;;10.71;72.42;100237.88;5134821;27;20202;-82
2022/02/09 17:30:55;;;;;;;9.30;6.82;;;;;;;10.68;72.69;100232.66;5135338;27;20210;-83
2022/02/09 17:33:36;;;;;;;13.00;8.13;;;;;;;10.54;72.12;100236.00;5117786;27;20191;-83
2022/02/09 17:36:10;;;;;;;15.00;8.15;;;;;;;10.57;73.26;100234.03;5114545;27;20184;-82
2022/02/09 17:38:44;;;;;;;11.45;8.15;;;;;;;10.60;73.37;100241.06;5094127;28;20274;-82
2022/02/09 17:57:52;;;;;;;17.55;10.65;;;;;;;10.31;76.87;100229.91;5112188;28;20203;-81
2022/02/09 18:00:19;;;;;;;14.93;9.98;;;;;;;10.31;77.05;100223.63;5112491;27;20222;-80
2022/02/09 18:02:47;;;;;;;13.77;9.20;;;;;;;10.38;77.83;100230.47;5113592;27;20201;-81
2022/02/09 18:05:19;;;;;;;18.85;10.55;;;;;;;10.06;80.08;100227.41;5118652;27;20607;-82
2022/02/09 18:07:50;;;;;;;13.38;8.00;;;;;;;10.09;80.39;100226.41;5118615;27;20206;-84
2022/02/09 18:10:25;;;;;;;16.45;8.77;;;;;;;9.87;82.79;100229.22;5119971;27;21191;-82
2022/02/09 18:13:18;;;;;;;16.65;9.85;;;;;;;9.70;85.66;100221.88;5120664;27;20201;-81
2022/02/09 18:29:59;;;;;;;32.67;22.35;;;;;;;8.85;97.87;100228.19;5087981;28;20209;-80
2022/02/09 18:38:23;;;;;;;13.65;8.05;;;;;;;8.52;100.00;100223.25;5108132;28;20220;-81
2022/02/09 18:43:36;;;;;;;12.60;8.80;;;;;;;8.16;100.00;100222.81;5109198;28;20253;-80
2022/02/09 18:46:10;;;;;;;17.35;7.13;;;;;;;8.22;100.00;100219.91;5109598;28;20182;-81
2022/02/09 18:57:00;;;;;;;13.32;9.15;;;;;;;7.85;100.00;100223.13;5119121;28;20216;-82
2022/02/09 18:59:34;;;;;;;10.57;8.10;;;;;;;7.64;100.00;100222.97;5108683;28;20688;-82
2022/02/09 19:02:22;;;;;;;14.05;8.38;;;;;;;7.73;100.00;100225.31;5109370;28;20189;-82
2022/02/09 19:04:58;;;;;;;15.32;8.10;;;;;;;7.72;100.00;100228.91;5108708;28;20200;-83
2022/02/09 19:07:41;;;;;;;11.55;9.32;;;;;;;7.52;100.00;100223.41;5109316;28;20584;-81
2022/02/09 19:16:02;;;;;;;14.48;9.38;;;;;;;7.74;100.00;100210.13;5108326;28;20309;-82
2022/02/09 19:18:50;;;;;;;19.95;10.93;;;;;;;7.73;100.00;100211.94;5107852;28;20240;-82
2022/02/09 19:27:07;;;;;;;14.38;9.43;;;;;;;7.51;100.00;100201.09;5089334;28;20196;-81
2022/02/09 19:32:27;;;;;;;11.93;9.43;;;;;;;7.23;100.00;100203.84;5095072;28;20533;-80
2022/02/09 19:46:34;;;;;;;12.60;7.80;;;;;;;7.02;100.00;100193.91;5093994;28;20185;-80
2022/02/09 19:49:07;;;;;;;11.05;8.18;;;;;;;6.88;100.00;100195.25;5094190;28;20188;-83
2022/02/09 19:51:41;;;;;;;12.20;8.50;;;;;;;6.90;100.00;100187.16;5094604;28;20184;-85
2022/02/09 19:54:12;;;;;;;9.57;7.10;;;;;;;6.84;100.00;100182.00;5094245;28;20258;-80
2022/02/09 19:56:49;;;;;;;10.55;8.48;;;;;;;6.85;100.00;100191.78;5094340;28;20189;-83
2022/02/09 19:59:18;;;;;;;10.77;8.05;;;;;;;6.89;100.00;100188.06;5093897;28;20233;-81
2022/02/09 20:01:45;;;;;;;12.40;8.52;;;;;;;6.89;100.00;100194.28;5094253;28;20275;-81
2022/02/09 20:04:14;;;;;;;14.68;9.85;;;;;;;6.93;100.00;100188.88;5093238;28;20196;-83
2022/02/09 20:06:41;;;;;;;11.70;8.30;;;;;;;6.79;100.00;100192.00;5093298;28;20251;-79
2022/02/09 20:09:08;;;;;;;13.90;9.43;;;;;;;6.59;100.00;100195.31;5093554;28;20281;-83
2022/02/09 20:11:37;;;;;;;15.75;9.85;;;;;;;6.44;100.00;100194.00;5085791;28;20205;-80
2022/02/09 20:14:07;;;;;;;20.77;11.77;;;;;;;6.46;100.00;100189.47;5091367;28;20276;-83
2022/02/09 20:16:33;;;;;;;13.55;10.05;;;;;;;6.39;100.00;100185.25;5093466;28;20235;-81
2022/02/09 20:19:00;;;;;;;16.50;10.15;;;;;;;6.31;100.00;100193.53;5093541;28;20224;-81
2022/02/09 20:21:29;;;;;;;19.52;13.90;;;;;;;6.36;100.00;100194.25;5092272;28;20720;-81
2022/02/09 20:23:55;;;;;;;13.98;10.73;;;;;;;6.14;100.00;100193.16;5092719;28;20961;-82
2022/02/09 20:26:24;;;;;;;17.73;11.07;;;;;;;6.12;100.00;100189.66;5093458;28;20253;-81
2022/02/09 20:28:56;;;;;;;16.08;12.20;;;;;;;5.99;100.00;100189.16;5093317;28;20210;-81